Aviation Digital Data Service (ADDS)

Output produced by TAFs form (0751 UTC 23 April 2018)
found at http://aviationweather.gov/adds/tafs/
 
METAR text: RJOO 230700Z 24009KT 200V290 9999 FEW040 BKN/// 23/08 Q1015 RMK 1CU040 A2999
Conditions at: RJOO (OSAKA INTL/ITAMI, JP) observed 0700 UTC 23 April 2018
Temperature: 23.0°C (73°F)
Dewpoint: 8.0°C (46°F) [RH = 38%]
Pressure (altimeter): 29.97 inches Hg (1015.0 mb)
Winds: from the WSW (240 degrees) at 10 MPH (9 knots; 4.7 m/s)
Visibility: 6 or more miles (10+ km)
Ceiling: at least 12,000 feet AGL
Clouds: few clouds at 4000 feet AGL
Weather: no significant weather observed at this time

Forecast for: RJOO (OSAKA INTL/ITAMI, JP)
Text: TAF RJOO 230509Z 2306/2412 24010KT 9999 FEW030
Forecast period: 0600 to 1200 UTC 23 April 2018
Forecast type: FROM: standard forecast or significant change
Winds: from the WSW (240 degrees) at 12 MPH (10 knots; 5.2 m/s)
Visibility: 6 or more miles (10+ km)
Clouds: few clouds at 3000 feet AGL
Weather: no significant weather forecast for this period
Forecast for: RJOO (OSAKA INTL/ITAMI, JP)
Text: TAF RJOO 230509Z 2306/2412 24010KT 9999 FEW030
Forecast period: 0600 to 1200 UTC 23 April 2018
Forecast type: FROM: standard forecast or significant change
Winds: from the WSW (240 degrees) at 12 MPH (10 knots; 5.2 m/s)
Visibility: 6 or more miles (10+ km)
Clouds: few clouds at 3000 feet AGL
Weather: no significant weather forecast for this period
Forecast for: RJOO (OSAKA INTL/ITAMI, JP)
Text: TAF RJOO 230509Z 2306/2412 24010KT 9999 FEW030
Forecast period: 1200 UTC 23 April 2018 to 1200 UTC 24 April 2018
Forecast type: BECOMING: Conditions expected to become as follows by 1400 UTC 23 April 2018
Winds: from the E (80 degrees) at 7 MPH (6 knots; 3.1 m/s)
Visibility: 6 or more miles (10+ km)
Clouds: few clouds at 3000 feet AGL
Weather: no significant weather forecast for this period
Forecast for: RJOO (OSAKA INTL/ITAMI, JP)
Text: TAF RJOO 230509Z 2306/2412 24010KT 9999 FEW030
Forecast period: 1200 UTC 23 April 2018 to 1200 UTC 24 April 2018
Forecast type: BECOMING: Conditions expected to become as follows by 1400 UTC 23 April 2018
Winds: from the E (80 degrees) at 7 MPH (6 knots; 3.1 m/s)
Visibility: 6 or more miles (10+ km)
Clouds: few clouds at 3000 feet AGL
Weather: no significant weather forecast for this period
Forecast for: RJOO (OSAKA INTL/ITAMI, JP)
Text: TAF RJOO 230509Z 2306/2412 24010KT 9999 FEW030
Forecast period: 0300 to 0900 UTC 24 April 2018
Forecast type: TEMPORARY: The following changes expected for less than half the time period
Visibility: 2.49 miles (4.01 km)
Weather: SHRA BR  (rain showers, mist)
Forecast for: RJOO (OSAKA INTL/ITAMI, JP)
Text: TAF RJOO 230509Z 2306/2412 24010KT 9999 FEW030
Forecast period: 0300 to 0900 UTC 24 April 2018
Forecast type: TEMPORARY: The following changes expected for less than half the time period
Visibility: 2.49 miles (4.01 km)
Weather: SHRA BR  (rain showers, mist)
Forecast for: RJOO (OSAKA INTL/ITAMI, JP)
Text: TAF RJOO 230509Z 2306/2412 24010KT 9999 FEW030
Forecast period: 0900 to 1200 UTC 24 April 2018
Forecast type: TEMPORARY: The following changes expected for less than half the time period
Visibility: 1.86 miles (2.99 km)
Weather: SHRA BR  (rain showers, mist)
Forecast for: RJOO (OSAKA INTL/ITAMI, JP)
Text: TAF RJOO 230509Z 2306/2412 24010KT 9999 FEW030
Forecast period: 0900 to 1200 UTC 24 April 2018
Forecast type: TEMPORARY: The following changes expected for less than half the time period
Visibility: 1.86 miles (2.99 km)
Weather: SHRA BR  (rain showers, mist)